sensor_id;sensor_type;location;lat;lon;timestamp;P1;durP1;ratioP1;P2;durP2;ratioP2
15218;SDS011;15623;53.986;11.676;2023-07-13T00:08:08;5.32;;;2.22;;
15218;SDS011;15623;53.986;11.676;2023-07-13T00:29:25;5.97;;;2.38;;
15218;SDS011;15623;53.986;11.676;2023-07-13T00:31:53;8.02;;;2.42;;
15218;SDS011;15623;53.986;11.676;2023-07-13T00:34:37;2.90;;;2.22;;
15218;SDS011;15623;53.986;11.676;2023-07-13T00:37:05;11.07;;;3.17;;
15218;SDS011;15623;53.986;11.676;2023-07-13T00:39:34;4.50;;;3.08;;
15218;SDS011;15623;53.986;11.676;2023-07-13T00:42:14;5.72;;;3.45;;
15218;SDS011;15623;53.986;11.676;2023-07-13T00:56:01;4.50;;;3.97;;
15218;SDS011;15623;53.986;11.676;2023-07-13T00:58:32;4.20;;;3.60;;
15218;SDS011;15623;53.986;11.676;2023-07-13T01:01:03;3.92;;;3.63;;
15218;SDS011;15623;53.986;11.676;2023-07-13T01:03:32;4.10;;;3.70;;
15218;SDS011;15623;53.986;11.676;2023-07-13T01:08:42;4.20;;;3.50;;
15218;SDS011;15623;53.986;11.676;2023-07-13T01:14:22;4.57;;;3.33;;
15218;SDS011;15623;53.986;11.676;2023-07-13T01:16:50;4.85;;;3.45;;
15218;SDS011;15623;53.986;11.676;2023-07-13T01:19:24;4.30;;;3.50;;
15218;SDS011;15623;53.986;11.676;2023-07-13T01:22:00;7.90;;;3.63;;
15218;SDS011;15623;53.986;11.676;2023-07-13T01:24:35;3.95;;;3.60;;
15218;SDS011;15623;53.986;11.676;2023-07-13T01:27:24;5.75;;;3.22;;
15218;SDS011;15623;53.986;11.676;2023-07-13T01:32:59;3.30;;;3.00;;
15218;SDS011;15623;53.986;11.676;2023-07-13T01:35:31;4.72;;;3.70;;
15218;SDS011;15623;53.986;11.676;2023-07-13T01:38:36;3.92;;;3.40;;
15218;SDS011;15623;53.986;11.676;2023-07-13T01:41:12;4.20;;;3.50;;
15218;SDS011;15623;53.986;11.676;2023-07-13T01:46:49;4.35;;;3.95;;
15218;SDS011;15623;53.986;11.676;2023-07-13T01:55:28;4.25;;;3.88;;
15218;SDS011;15623;53.986;11.676;2023-07-13T01:58:05;3.97;;;3.67;;
15218;SDS011;15623;53.986;11.676;2023-07-13T02:00:36;4.78;;;4.00;;
15218;SDS011;15623;53.986;11.676;2023-07-13T02:03:04;4.40;;;3.45;;
15218;SDS011;15623;53.986;11.676;2023-07-13T02:05:34;5.35;;;3.83;;
15218;SDS011;15623;53.986;11.676;2023-07-13T02:08:04;5.45;;;3.47;;
15218;SDS011;15623;53.986;11.676;2023-07-13T02:10:39;4.13;;;3.17;;
15218;SDS011;15623;53.986;11.676;2023-07-13T02:13:09;4.63;;;3.92;;
15218;SDS011;15623;53.986;11.676;2023-07-13T02:15:49;3.70;;;3.40;;
15218;SDS011;15623;53.986;11.676;2023-07-13T02:18:29;4.55;;;3.50;;
15218;SDS011;15623;53.986;11.676;2023-07-13T02:21:00;6.20;;;3.67;;
15218;SDS011;15623;53.986;11.676;2023-07-13T02:23:48;5.63;;;4.10;;
15218;SDS011;15623;53.986;11.676;2023-07-13T02:26:23;6.28;;;4.05;;
15218;SDS011;15623;53.986;11.676;2023-07-13T02:28:57;6.03;;;3.65;;
15218;SDS011;15623;53.986;11.676;2023-07-13T02:31:33;4.53;;;4.18;;
15218;SDS011;15623;53.986;11.676;2023-07-13T02:34:06;4.50;;;4.10;;
15218;SDS011;15623;53.986;11.676;2023-07-13T02:36:33;4.78;;;4.38;;
15218;SDS011;15623;53.986;11.676;2023-07-13T02:39:03;7.50;;;4.57;;
15218;SDS011;15623;53.986;11.676;2023-07-13T02:41:35;6.47;;;4.88;;
15218;SDS011;15623;53.986;11.676;2023-07-13T02:44:05;5.57;;;4.70;;
15218;SDS011;15623;53.986;11.676;2023-07-13T02:46:40;5.32;;;4.45;;
15218;SDS011;15623;53.986;11.676;2023-07-13T02:49:15;4.63;;;4.20;;
15218;SDS011;15623;53.986;11.676;2023-07-13T02:54:19;3.80;;;3.40;;
15218;SDS011;15623;53.986;11.676;2023-07-13T02:59:50;6.55;;;3.65;;
15218;SDS011;15623;53.986;11.676;2023-07-13T03:02:19;10.82;;;4.13;;
15218;SDS011;15623;53.986;11.676;2023-07-13T03:04:49;4.03;;;3.20;;
15218;SDS011;15623;53.986;11.676;2023-07-13T03:07:16;5.07;;;3.92;;
15218;SDS011;15623;53.986;11.676;2023-07-13T03:09:45;5.47;;;3.90;;
15218;SDS011;15623;53.986;11.676;2023-07-13T03:15:42;3.72;;;3.35;;
15218;SDS011;15623;53.986;11.676;2023-07-13T03:18:16;6.05;;;3.67;;
15218;SDS011;15623;53.986;11.676;2023-07-13T03:20:56;5.78;;;3.70;;
15218;SDS011;15623;53.986;11.676;2023-07-13T03:23:24;6.00;;;3.40;;
15218;SDS011;15623;53.986;11.676;2023-07-13T03:31:48;4.95;;;3.30;;
15218;SDS011;15623;53.986;11.676;2023-07-13T03:34:30;3.95;;;3.30;;
15218;SDS011;15623;53.986;11.676;2023-07-13T03:37:00;3.08;;;2.88;;
15218;SDS011;15623;53.986;11.676;2023-07-13T03:39:37;3.28;;;2.92;;
15218;SDS011;15623;53.986;11.676;2023-07-13T03:42:05;3.65;;;2.75;;
15218;SDS011;15623;53.986;11.676;2023-07-13T03:44:34;3.58;;;2.95;;
15218;SDS011;15623;53.986;11.676;2023-07-13T03:47:13;5.55;;;3.00;;
15218;SDS011;15623;53.986;11.676;2023-07-13T03:49:42;5.32;;;2.90;;
15218;SDS011;15623;53.986;11.676;2023-07-13T03:52:11;2.70;;;2.47;;
15218;SDS011;15623;53.986;11.676;2023-07-13T03:54:40;4.20;;;2.72;;
15218;SDS011;15623;53.986;11.676;2023-07-13T03:59:40;3.05;;;2.50;;
15218;SDS011;15623;53.986;11.676;2023-07-13T04:02:33;5.60;;;2.88;;
15218;SDS011;15623;53.986;11.676;2023-07-13T04:05:19;3.58;;;2.53;;
15218;SDS011;15623;53.986;11.676;2023-07-13T04:07:55;3.30;;;3.00;;
15218;SDS011;15623;53.986;11.676;2023-07-13T04:10:23;3.33;;;2.58;;
15218;SDS011;15623;53.986;11.676;2023-07-13T04:12:52;4.53;;;2.53;;
15218;SDS011;15623;53.986;11.676;2023-07-13T04:15:28;2.70;;;2.50;;
15218;SDS011;15623;53.986;11.676;2023-07-13T04:18:05;4.68;;;2.80;;
15218;SDS011;15623;53.986;11.676;2023-07-13T04:20:34;2.42;;;2.15;;
15218;SDS011;15623;53.986;11.676;2023-07-13T04:23:04;2.90;;;2.50;;
15218;SDS011;15623;53.986;11.676;2023-07-13T04:25:34;2.85;;;2.50;;
15218;SDS011;15623;53.986;11.676;2023-07-13T04:28:03;3.53;;;2.67;;
15218;SDS011;15623;53.986;11.676;2023-07-13T04:30:33;4.20;;;2.50;;
15218;SDS011;15623;53.986;11.676;2023-07-13T04:33:03;4.43;;;2.58;;
15218;SDS011;15623;53.986;11.676;2023-07-13T04:35:40;4.28;;;2.58;;
15218;SDS011;15623;53.986;11.676;2023-07-13T04:38:08;3.42;;;2.20;;
15218;SDS011;15623;53.986;11.676;2023-07-13T04:40:37;2.60;;;2.40;;
15218;SDS011;15623;53.986;11.676;2023-07-13T05:22:27;2.05;;;1.80;;
15218;SDS011;15623;53.986;11.676;2023-07-13T07:30:10;2.72;;;1.50;;
15218;SDS011;15623;53.986;11.676;2023-07-13T07:44:16;3.90;;;1.70;;
15218;SDS011;15623;53.986;11.676;2023-07-13T07:57:44;2.03;;;1.52;;
15218;SDS011;15623;53.986;11.676;2023-07-13T08:03:00;2.50;;;1.42;;
15218;SDS011;15623;53.986;11.676;2023-07-13T08:40:48;8.80;;;2.17;;
15218;SDS011;15623;53.986;11.676;2023-07-13T10:17:57;2.97;;;1.65;;
15218;SDS011;15623;53.986;11.676;2023-07-13T10:20:28;3.42;;;1.50;;
15218;SDS011;15623;53.986;11.676;2023-07-13T10:41:54;3.97;;;1.85;;
15218;SDS011;15623;53.986;11.676;2023-07-13T11:06:12;3.53;;;1.52;;
15218;SDS011;15623;53.986;11.676;2023-07-13T12:25:04;2.28;;;1.55;;
15218;SDS011;15623;53.986;11.676;2023-07-13T12:27:32;2.17;;;1.50;;
15218;SDS011;15623;53.986;11.676;2023-07-13T12:30:00;2.20;;;1.70;;
15218;SDS011;15623;53.986;11.676;2023-07-13T12:32:40;2.97;;;1.50;;
15218;SDS011;15623;53.986;11.676;2023-07-13T12:35:18;3.35;;;1.83;;
15218;SDS011;15623;53.986;11.676;2023-07-13T12:37:48;7.47;;;2.10;;
15218;SDS011;15623;53.986;11.676;2023-07-13T12:43:13;4.57;;;2.17;;
15218;SDS011;15623;53.986;11.676;2023-07-13T12:45:54;5.10;;;2.15;;
15218;SDS011;15623;53.986;11.676;2023-07-13T12:48:22;4.55;;;1.85;;
15218;SDS011;15623;53.986;11.676;2023-07-13T12:51:00;2.95;;;1.60;;
15218;SDS011;15623;53.986;11.676;2023-07-13T12:53:29;3.90;;;1.67;;
15218;SDS011;15623;53.986;11.676;2023-07-13T12:56:02;2.42;;;1.35;;
15218;SDS011;15623;53.986;11.676;2023-07-13T12:58:31;6.25;;;1.63;;
15218;SDS011;15623;53.986;11.676;2023-07-13T13:01:01;3.50;;;1.42;;
15218;SDS011;15623;53.986;11.676;2023-07-13T13:03:39;2.13;;;1.48;;
15218;SDS011;15623;53.986;11.676;2023-07-13T13:06:20;4.40;;;1.70;;
15218;SDS011;15623;53.986;11.676;2023-07-13T13:09:01;5.05;;;1.90;;
15218;SDS011;15623;53.986;11.676;2023-07-13T13:11:33;4.80;;;1.98;;
15218;SDS011;15623;53.986;11.676;2023-07-13T13:14:02;5.45;;;1.90;;
15218;SDS011;15623;53.986;11.676;2023-07-13T13:16:30;3.08;;;1.58;;
15218;SDS011;15623;53.986;11.676;2023-07-13T13:19:01;4.32;;;1.50;;
15218;SDS011;15623;53.986;11.676;2023-07-13T13:21:42;2.55;;;1.50;;
15218;SDS011;15623;53.986;11.676;2023-07-13T13:35:07;1.60;;;1.45;;
15218;SDS011;15623;53.986;11.676;2023-07-13T13:37:47;3.65;;;1.60;;
15218;SDS011;15623;53.986;11.676;2023-07-13T13:40:17;2.03;;;1.35;;
15218;SDS011;15623;53.986;11.676;2023-07-13T13:42:44;3.60;;;1.35;;
15218;SDS011;15623;53.986;11.676;2023-07-13T13:45:13;3.47;;;1.30;;
15218;SDS011;15623;53.986;11.676;2023-07-13T13:47:43;1.85;;;1.10;;
15218;SDS011;15623;53.986;11.676;2023-07-13T13:50:15;2.08;;;1.40;;
15218;SDS011;15623;53.986;11.676;2023-07-13T13:52:45;2.05;;;1.40;;
15218;SDS011;15623;53.986;11.676;2023-07-13T13:55:13;1.60;;;1.20;;
15218;SDS011;15623;53.986;11.676;2023-07-13T13:57:41;2.00;;;1.50;;
15218;SDS011;15623;53.986;11.676;2023-07-13T14:00:09;2.63;;;1.40;;
15218;SDS011;15623;53.986;11.676;2023-07-13T14:02:39;1.38;;;1.10;;
15218;SDS011;15623;53.986;11.676;2023-07-13T14:05:16;1.70;;;1.27;;
15218;SDS011;15623;53.986;11.676;2023-07-13T14:07:48;4.13;;;1.38;;
15218;SDS011;15623;53.986;11.676;2023-07-13T14:12:44;1.40;;;1.23;;
15218;SDS011;15623;53.986;11.676;2023-07-13T14:15:17;2.28;;;1.25;;
15218;SDS011;15623;53.986;11.676;2023-07-13T14:17:45;1.40;;;1.00;;
15218;SDS011;15623;53.986;11.676;2023-07-13T14:20:14;2.15;;;1.40;;
15218;SDS011;15623;53.986;11.676;2023-07-13T14:25:10;1.85;;;1.48;;
15218;SDS011;15623;53.986;11.676;2023-07-13T14:27:44;2.15;;;1.58;;
15218;SDS011;15623;53.986;11.676;2023-07-13T14:33:21;3.92;;;1.55;;
15218;SDS011;15623;53.986;11.676;2023-07-13T14:36:00;2.25;;;1.55;;
15218;SDS011;15623;53.986;11.676;2023-07-13T14:38:43;1.67;;;1.23;;
15218;SDS011;15623;53.986;11.676;2023-07-13T14:41:13;2.05;;;1.50;;
15218;SDS011;15623;53.986;11.676;2023-07-13T14:43:41;3.88;;;1.50;;
15218;SDS011;15623;53.986;11.676;2023-07-13T14:46:27;1.60;;;1.50;;
15218;SDS011;15623;53.986;11.676;2023-07-13T14:49:02;3.80;;;1.75;;
15218;SDS011;15623;53.986;11.676;2023-07-13T15:53:12;1.70;;;1.60;;
15218;SDS011;15623;53.986;11.676;2023-07-13T17:05:02;2.95;;;1.80;;
15218;SDS011;15623;53.986;11.676;2023-07-13T17:07:30;3.05;;;1.80;;
15218;SDS011;15623;53.986;11.676;2023-07-13T17:09:58;3.28;;;1.90;;
15218;SDS011;15623;53.986;11.676;2023-07-13T17:12:32;2.30;;;1.88;;
15218;SDS011;15623;53.986;11.676;2023-07-13T17:15:19;1.92;;;1.58;;
15218;SDS011;15623;53.986;11.676;2023-07-13T19:52:12;4.20;;;3.30;;
15218;SDS011;15623;53.986;11.676;2023-07-13T21:31:56;6.60;;;2.50;;
